createdAt,value
2022-10-09T00:00:48.152Z,23.99
2022-10-09T00:15:50.413Z,23.26
2022-10-09T00:30:52.744Z,22.71
2022-10-09T00:45:55.212Z,22.38
2022-10-09T01:00:57.601Z,21.93
2022-10-09T01:16:00.018Z,21.56
2022-10-09T01:31:02.815Z,20.78
2022-10-09T01:46:05.333Z,19.98
2022-10-09T02:01:07.986Z,19.81
2022-10-09T02:16:10.500Z,19.01
2022-10-09T02:31:12.968Z,18.3
2022-10-09T02:46:15.348Z,18.23
2022-10-09T03:01:17.775Z,18.03
2022-10-09T03:16:20.155Z,17.86
2022-10-09T03:31:49.975Z,17.22
2022-10-09T03:46:54.168Z,16.59
2022-10-09T04:01:56.512Z,16.78
2022-10-09T04:16:58.745Z,16.22
2022-10-09T04:32:01.199Z,16.28
2022-10-09T04:47:03.457Z,16.11
2022-10-09T05:02:05.838Z,15.73
2022-10-09T05:17:14.045Z,15.75
2022-10-09T05:32:17.271Z,15.46
2022-10-09T05:47:19.498Z,15.37
2022-10-09T06:02:21.837Z,14.86
2022-10-09T06:17:24.200Z,15.09
2022-10-09T06:32:26.663Z,14.47
2022-10-09T06:47:28.897Z,14.44
2022-10-09T07:02:31.343Z,14.2
2022-10-09T07:17:33.763Z,14.37
2022-10-09T07:32:36.068Z,14.34
2022-10-09T07:47:38.389Z,13.93
2022-10-09T08:02:40.744Z,13.88
2022-10-09T08:17:43.187Z,13.29
2022-10-09T08:32:45.541Z,13.45
2022-10-09T08:47:47.876Z,13.45
2022-10-09T09:02:50.535Z,13.07
2022-10-09T09:17:53.057Z,13.02
2022-10-09T09:32:55.313Z,12.79
2022-10-09T09:47:57.642Z,12.69
2022-10-09T10:02:59.936Z,12.55
2022-10-09T10:18:02.369Z,12.36
2022-10-09T10:33:04.694Z,12.56
2022-10-09T10:48:06.989Z,12.41
2022-10-09T11:03:09.441Z,11.91
2022-10-09T11:18:11.807Z,11.93
2022-10-09T11:33:14.144Z,12
2022-10-09T11:48:16.410Z,11.74
2022-10-09T12:03:18.895Z,11.92
2022-10-09T12:18:21.208Z,11.89
2022-10-09T12:33:23.488Z,11.61
2022-10-09T12:48:25.880Z,11.74
2022-10-09T13:03:28.177Z,11.39
2022-10-09T13:18:30.439Z,11.18
2022-10-09T13:33:32.750Z,11.2
2022-10-09T13:48:35.097Z,11.22
2022-10-09T14:03:37.422Z,11.2
2022-10-09T14:18:40.015Z,10.96
2022-10-09T14:33:42.326Z,10.83
2022-10-09T14:48:44.590Z,10.87
2022-10-09T15:03:46.871Z,11.13
2022-10-09T15:18:49.188Z,11.63
2022-10-09T15:33:51.487Z,10.49
2022-10-09T15:48:53.901Z,16.96
2022-10-09T16:03:56.217Z,13.37
2022-10-09T16:18:58.542Z,15.93
2022-10-09T16:34:00.922Z,23.14
2022-10-09T16:49:03.217Z,18.93
2022-10-09T17:04:05.653Z,17.46
2022-10-09T17:19:08.168Z,16.46
2022-10-09T17:34:10.454Z,16.8
2022-10-09T17:49:12.757Z,17.44
2022-10-09T18:04:15.090Z,17.68
2022-10-09T18:19:17.412Z,18.87
2022-10-09T18:34:19.690Z,19.13
2022-10-09T18:49:21.981Z,19.07
2022-10-09T19:04:24.439Z,19.88
2022-10-09T19:19:26.683Z,20.55
2022-10-09T19:34:28.990Z,21.49
2022-10-09T19:49:31.303Z,22.89
2022-10-09T20:04:33.583Z,23.8
2022-10-09T20:19:35.886Z,24.4
2022-10-09T20:34:38.224Z,24.73
2022-10-09T20:49:40.498Z,24.47
2022-10-09T21:04:42.801Z,24.55
2022-10-09T21:19:45.218Z,24.24
2022-10-09T21:34:47.588Z,24.65
2022-10-09T21:49:49.827Z,25.64
2022-10-09T22:04:52.136Z,25.4
2022-10-09T22:19:54.414Z,25.28
2022-10-09T22:34:56.727Z,25.46
2022-10-09T22:49:59.012Z,25.95
2022-10-09T23:05:01.357Z,26.21
2022-10-09T23:20:03.641Z,26.03
2022-10-09T23:35:06.107Z,24.75
2022-10-09T23:50:08.672Z,24.52
